Delta Virtual Airport Information Service

Chicago Rockford International Airport

ICAO: KRFD Country: United States
Latitude: 42.1953 Longitude: -89.0972
Latest Arrival : UPS927 (1) (KONT-KRFD) Latest Departure : DAC3602 (KRFD-KIAH)


WX CaptureLIVE
Data provided by noaa.gov | Fetched at 22:46:51

METAR : KRFD 250254Z 15003KT 10SM OVC250 24/18 A2990 RMK AO2 SLP122 T02390183 53019 $

TAF : KRFD 250304Z 2503/2524 16006KT P6SM BKN250 FM250900 17007KT 6SM BR FEW020 BKN050 FM251500 20010KT P6SM SCT045


Runway Data for KRFD
Data provided by openaviationdata.com

Runway ID Mag Var Hdg Length Elevation Surface ILS Freq ILS Id ILS Slope
1 0 8202 ft 742 ft Asphalt 109.3 IRFD 2
7 0 66° 9992 ft 742 ft Asphalt 109.55 IUDY 3
19 0 186° 8202 ft 742 ft Asphalt -- -- --
25 0 246° 9992 ft 742 ft Asphalt -- -- --

Chicago Rockford International Airport, United States
Use only for reference purposes



Not for navigational purposes.